Kelvington, Canada
Current Conditions -  °F | °C
As of 8:00 AM on Wednesday 26 Nov 2014 (Local Time) from CYQV Reporting Station
Overcast Overcast  
Wind Chill: -24°   Ceiling: 1500
Heat Index: -9°   Visibility: 9mi
Dew Point: -15°   Wind: 7mph
Humidity: 77%   Direction: 240°WSW
Pressure: 30.38"   Gusts: NA
Location:  52.17°N, 103.52°W
Report Text: CYQV 261400Z AUTO 24006KT 9SM OVC015 M23/M26 A3038 RMK SLP347
Loading
Personal Weather Stations






























Interactive Weather Map New forecast layout! Learn more

10-Day Weather Forecast

Advertisements
Track Severe Weather on mobile